sensor_id;sensor_type;location;lat;lon;timestamp;P1;durP1;ratioP1;P2;durP2;ratioP2
1685;SDS011;840;47.980;7.830;2022-12-18T00:02:01;23.48;;;16.58;;
1685;SDS011;840;47.980;7.830;2022-12-18T00:04:28;20.95;;;14.80;;
1685;SDS011;840;47.980;7.830;2022-12-18T00:06:57;24.05;;;15.07;;
1685;SDS011;840;47.980;7.830;2022-12-18T00:09:27;28.15;;;16.83;;
1685;SDS011;840;47.980;7.830;2022-12-18T00:11:54;24.75;;;15.90;;
1685;SDS011;840;47.980;7.830;2022-12-18T00:14:21;23.15;;;16.00;;
1685;SDS011;840;47.980;7.830;2022-12-18T00:16:48;18.05;;;12.40;;
1685;SDS011;840;47.980;7.830;2022-12-18T00:19:16;26.38;;;16.35;;
1685;SDS011;840;47.980;7.830;2022-12-18T00:21:43;17.88;;;14.80;;
1685;SDS011;840;47.980;7.830;2022-12-18T00:24:14;19.25;;;14.65;;
1685;SDS011;840;47.980;7.830;2022-12-18T00:26:46;18.08;;;12.07;;
1685;SDS011;840;47.980;7.830;2022-12-18T00:29:18;22.92;;;13.75;;
1685;SDS011;840;47.980;7.830;2022-12-18T00:31:53;20.55;;;15.65;;
1685;SDS011;840;47.980;7.830;2022-12-18T00:34:21;23.10;;;14.45;;
1685;SDS011;840;47.980;7.830;2022-12-18T00:36:51;19.08;;;14.25;;
1685;SDS011;840;47.980;7.830;2022-12-18T00:39:21;21.25;;;13.55;;
1685;SDS011;840;47.980;7.830;2022-12-18T00:41:50;18.70;;;13.00;;
1685;SDS011;840;47.980;7.830;2022-12-18T00:44:34;19.63;;;13.45;;
1685;SDS011;840;47.980;7.830;2022-12-18T00:47:08;23.48;;;14.30;;
1685;SDS011;840;47.980;7.830;2022-12-18T00:49:39;17.75;;;13.00;;
1685;SDS011;840;47.980;7.830;2022-12-18T00:52:20;20.17;;;12.10;;
1685;SDS011;840;47.980;7.830;2022-12-18T00:55:03;18.52;;;13.07;;
1685;SDS011;840;47.980;7.830;2022-12-18T00:57:41;21.02;;;13.52;;
1685;SDS011;840;47.980;7.830;2022-12-18T01:00:26;14.30;;;11.00;;
1685;SDS011;840;47.980;7.830;2022-12-18T01:02:58;24.77;;;15.07;;
1685;SDS011;840;47.980;7.830;2022-12-18T01:05:33;15.13;;;10.98;;
1685;SDS011;840;47.980;7.830;2022-12-18T01:08:05;20.25;;;12.98;;
1685;SDS011;840;47.980;7.830;2022-12-18T01:10:43;21.40;;;11.88;;
1685;SDS011;840;47.980;7.830;2022-12-18T01:13:28;18.65;;;11.35;;
1685;SDS011;840;47.980;7.830;2022-12-18T01:16:06;16.23;;;10.95;;
1685;SDS011;840;47.980;7.830;2022-12-18T01:18:40;18.40;;;13.60;;
1685;SDS011;840;47.980;7.830;2022-12-18T01:21:11;21.33;;;12.52;;
1685;SDS011;840;47.980;7.830;2022-12-18T01:23:51;20.92;;;13.75;;
1685;SDS011;840;47.980;7.830;2022-12-18T01:26:22;15.70;;;10.70;;
1685;SDS011;840;47.980;7.830;2022-12-18T01:28:53;22.20;;;12.35;;
1685;SDS011;840;47.980;7.830;2022-12-18T01:31:22;19.13;;;12.57;;
1685;SDS011;840;47.980;7.830;2022-12-18T01:33:55;22.55;;;13.13;;
1685;SDS011;840;47.980;7.830;2022-12-18T01:36:28;22.85;;;12.13;;
1685;SDS011;840;47.980;7.830;2022-12-18T01:39:16;22.33;;;14.38;;
1685;SDS011;840;47.980;7.830;2022-12-18T01:41:48;17.23;;;11.63;;
1685;SDS011;840;47.980;7.830;2022-12-18T01:47:23;23.02;;;13.52;;
1685;SDS011;840;47.980;7.830;2022-12-18T01:49:53;22.23;;;13.52;;
1685;SDS011;840;47.980;7.830;2022-12-18T01:52:22;20.30;;;14.48;;
1685;SDS011;840;47.980;7.830;2022-12-18T01:54:52;22.30;;;14.77;;
1685;SDS011;840;47.980;7.830;2022-12-18T01:57:29;21.35;;;13.07;;
1685;SDS011;840;47.980;7.830;2022-12-18T02:00:03;19.85;;;15.15;;
1685;SDS011;840;47.980;7.830;2022-12-18T02:02:34;23.70;;;14.25;;
1685;SDS011;840;47.980;7.830;2022-12-18T02:05:03;22.75;;;14.43;;
1685;SDS011;840;47.980;7.830;2022-12-18T02:07:49;28.52;;;15.90;;
1685;SDS011;840;47.980;7.830;2022-12-18T02:10:27;20.98;;;13.25;;
1685;SDS011;840;47.980;7.830;2022-12-18T02:13:04;26.55;;;15.68;;
1685;SDS011;840;47.980;7.830;2022-12-18T02:15:41;23.63;;;15.82;;
1685;SDS011;840;47.980;7.830;2022-12-18T02:18:18;19.83;;;13.38;;
1685;SDS011;840;47.980;7.830;2022-12-18T02:20:54;26.88;;;15.25;;
1685;SDS011;840;47.980;7.830;2022-12-18T02:23:31;23.80;;;15.23;;
1685;SDS011;840;47.980;7.830;2022-12-18T02:26:20;26.75;;;15.57;;
1685;SDS011;840;47.980;7.830;2022-12-18T02:28:53;27.08;;;14.88;;
1685;SDS011;840;47.980;7.830;2022-12-18T02:31:28;24.58;;;14.65;;
1685;SDS011;840;47.980;7.830;2022-12-18T02:34:00;19.05;;;13.70;;
1685;SDS011;840;47.980;7.830;2022-12-18T02:36:31;29.58;;;14.68;;
1685;SDS011;840;47.980;7.830;2022-12-18T02:39:01;24.52;;;16.33;;
1685;SDS011;840;47.980;7.830;2022-12-18T02:41:33;24.38;;;14.80;;
1685;SDS011;840;47.980;7.830;2022-12-18T02:44:07;20.08;;;13.65;;
1685;SDS011;840;47.980;7.830;2022-12-18T02:46:37;21.13;;;15.30;;
1685;SDS011;840;47.980;7.830;2022-12-18T02:49:14;21.45;;;15.75;;
1685;SDS011;840;47.980;7.830;2022-12-18T02:51:55;21.40;;;13.68;;
1685;SDS011;840;47.980;7.830;2022-12-18T02:54:36;24.65;;;16.70;;
1685;SDS011;840;47.980;7.830;2022-12-18T02:57:18;25.00;;;15.02;;
1685;SDS011;840;47.980;7.830;2022-12-18T02:59:53;25.13;;;14.35;;
1685;SDS011;840;47.980;7.830;2022-12-18T03:02:25;25.33;;;16.10;;
1685;SDS011;840;47.980;7.830;2022-12-18T03:05:00;28.42;;;16.27;;
1685;SDS011;840;47.980;7.830;2022-12-18T03:07:34;28.25;;;16.95;;
1685;SDS011;840;47.980;7.830;2022-12-18T03:10:06;36.08;;;16.80;;
1685;SDS011;840;47.980;7.830;2022-12-18T03:12:44;22.98;;;14.52;;
1685;SDS011;840;47.980;7.830;2022-12-18T03:15:20;26.10;;;15.45;;
1685;SDS011;840;47.980;7.830;2022-12-18T03:17:55;17.27;;;12.65;;
1685;SDS011;840;47.980;7.830;2022-12-18T03:20:25;18.48;;;12.68;;
1685;SDS011;840;47.980;7.830;2022-12-18T03:22:57;19.00;;;12.80;;
1685;SDS011;840;47.980;7.830;2022-12-18T03:25:32;24.27;;;14.32;;
1685;SDS011;840;47.980;7.830;2022-12-18T03:28:10;24.50;;;16.80;;
1685;SDS011;840;47.980;7.830;2022-12-18T03:30:41;21.08;;;13.38;;
1685;SDS011;840;47.980;7.830;2022-12-18T03:33:15;21.08;;;15.80;;
1685;SDS011;840;47.980;7.830;2022-12-18T03:35:46;23.10;;;14.10;;
1685;SDS011;840;47.980;7.830;2022-12-18T03:38:27;22.13;;;14.13;;
1685;SDS011;840;47.980;7.830;2022-12-18T03:40:56;20.55;;;13.95;;
1685;SDS011;840;47.980;7.830;2022-12-18T03:43:34;20.60;;;12.25;;
1685;SDS011;840;47.980;7.830;2022-12-18T03:46:11;25.63;;;12.95;;
1685;SDS011;840;47.980;7.830;2022-12-18T03:48:44;20.33;;;13.35;;
1685;SDS011;840;47.980;7.830;2022-12-18T03:51:20;20.00;;;11.65;;
1685;SDS011;840;47.980;7.830;2022-12-18T03:53:53;21.60;;;14.48;;
1685;SDS011;840;47.980;7.830;2022-12-18T03:56:35;17.58;;;13.75;;
1685;SDS011;840;47.980;7.830;2022-12-18T03:59:09;17.88;;;11.77;;
1685;SDS011;840;47.980;7.830;2022-12-18T04:01:39;20.73;;;12.38;;
1685;SDS011;840;47.980;7.830;2022-12-18T04:04:14;16.63;;;12.05;;
1685;SDS011;840;47.980;7.830;2022-12-18T04:06:46;24.42;;;12.60;;
1685;SDS011;840;47.980;7.830;2022-12-18T04:09:19;17.88;;;11.25;;
1685;SDS011;840;47.980;7.830;2022-12-18T04:11:52;27.88;;;14.45;;
1685;SDS011;840;47.980;7.830;2022-12-18T04:14:21;26.05;;;13.07;;
1685;SDS011;840;47.980;7.830;2022-12-18T04:16:48;20.45;;;13.30;;
1685;SDS011;840;47.980;7.830;2022-12-18T04:19:15;18.60;;;10.90;;
1685;SDS011;840;47.980;7.830;2022-12-18T04:21:44;19.05;;;13.60;;
1685;SDS011;840;47.980;7.830;2022-12-18T04:24:12;18.17;;;11.00;;
1685;SDS011;840;47.980;7.830;2022-12-18T04:26:41;26.20;;;12.85;;
1685;SDS011;840;47.980;7.830;2022-12-18T04:29:09;19.88;;;13.38;;
1685;SDS011;840;47.980;7.830;2022-12-18T04:31:42;19.88;;;13.07;;
1685;SDS011;840;47.980;7.830;2022-12-18T04:34:09;18.33;;;11.35;;
1685;SDS011;840;47.980;7.830;2022-12-18T04:36:37;24.08;;;11.18;;
1685;SDS011;840;47.980;7.830;2022-12-18T04:39:04;11.68;;;9.25;;
1685;SDS011;840;47.980;7.830;2022-12-18T04:41:33;11.52;;;8.85;;
1685;SDS011;840;47.980;7.830;2022-12-18T04:44:02;14.18;;;10.45;;
1685;SDS011;840;47.980;7.830;2022-12-18T04:46:31;17.45;;;12.43;;
1685;SDS011;840;47.980;7.830;2022-12-18T04:49:02;15.95;;;9.73;;
1685;SDS011;840;47.980;7.830;2022-12-18T04:51:31;15.02;;;11.23;;
1685;SDS011;840;47.980;7.830;2022-12-18T04:54:02;12.18;;;9.32;;
1685;SDS011;840;47.980;7.830;2022-12-18T04:56:32;20.75;;;13.13;;
1685;SDS011;840;47.980;7.830;2022-12-18T04:59:02;14.50;;;10.23;;
1685;SDS011;840;47.980;7.830;2022-12-18T05:01:29;17.05;;;10.50;;
1685;SDS011;840;47.980;7.830;2022-12-18T05:03:58;18.10;;;10.25;;
1685;SDS011;840;47.980;7.830;2022-12-18T05:06:29;11.73;;;9.90;;
1685;SDS011;840;47.980;7.830;2022-12-18T05:09:00;14.52;;;11.10;;
1685;SDS011;840;47.980;7.830;2022-12-18T05:11:29;12.45;;;8.27;;
1685;SDS011;840;47.980;7.830;2022-12-18T05:13:57;16.42;;;11.35;;
1685;SDS011;840;47.980;7.830;2022-12-18T05:16:24;13.68;;;8.98;;
1685;SDS011;840;47.980;7.830;2022-12-18T05:18:52;9.27;;;8.38;;
1685;SDS011;840;47.980;7.830;2022-12-18T05:21:23;12.25;;;8.27;;
1685;SDS011;840;47.980;7.830;2022-12-18T05:23:50;21.02;;;9.77;;
1685;SDS011;840;47.980;7.830;2022-12-18T05:26:18;14.02;;;9.18;;
1685;SDS011;840;47.980;7.830;2022-12-18T05:28:46;13.52;;;7.40;;
1685;SDS011;840;47.980;7.830;2022-12-18T05:31:13;14.75;;;9.70;;
1685;SDS011;840;47.980;7.830;2022-12-18T05:33:42;13.57;;;10.40;;
1685;SDS011;840;47.980;7.830;2022-12-18T05:36:12;17.10;;;10.38;;
1685;SDS011;840;47.980;7.830;2022-12-18T05:38:40;14.02;;;10.50;;
1685;SDS011;840;47.980;7.830;2022-12-18T05:41:15;15.50;;;9.45;;
1685;SDS011;840;47.980;7.830;2022-12-18T05:43:42;14.38;;;8.40;;
1685;SDS011;840;47.980;7.830;2022-12-18T05:46:11;15.45;;;9.15;;
1685;SDS011;840;47.980;7.830;2022-12-18T05:48:42;9.68;;;8.48;;
1685;SDS011;840;47.980;7.830;2022-12-18T05:51:12;13.07;;;9.25;;
1685;SDS011;840;47.980;7.830;2022-12-18T05:53:42;12.38;;;9.65;;
1685;SDS011;840;47.980;7.830;2022-12-18T05:56:12;10.15;;;8.55;;
1685;SDS011;840;47.980;7.830;2022-12-18T05:58:41;14.80;;;9.25;;
1685;SDS011;840;47.980;7.830;2022-12-18T06:01:14;11.05;;;8.27;;
1685;SDS011;840;47.980;7.830;2022-12-18T06:03:43;12.85;;;8.85;;
1685;SDS011;840;47.980;7.830;2022-12-18T06:06:14;9.82;;;7.50;;
1685;SDS011;840;47.980;7.830;2022-12-18T06:08:44;10.38;;;8.43;;
1685;SDS011;840;47.980;7.830;2022-12-18T06:11:15;17.35;;;9.82;;
1685;SDS011;840;47.980;7.830;2022-12-18T06:13:44;13.82;;;10.90;;
1685;SDS011;840;47.980;7.830;2022-12-18T06:16:13;21.70;;;9.75;;
1685;SDS011;840;47.980;7.830;2022-12-18T06:18:42;13.40;;;8.98;;
1685;SDS011;840;47.980;7.830;2022-12-18T06:21:10;14.80;;;10.50;;
1685;SDS011;840;47.980;7.830;2022-12-18T06:23:37;18.27;;;11.50;;
1685;SDS011;840;47.980;7.830;2022-12-18T06:26:09;18.33;;;13.15;;
1685;SDS011;840;47.980;7.830;2022-12-18T06:28:40;15.40;;;10.77;;
1685;SDS011;840;47.980;7.830;2022-12-18T06:31:08;24.30;;;13.48;;
1685;SDS011;840;47.980;7.830;2022-12-18T06:33:37;20.88;;;13.63;;
1685;SDS011;840;47.980;7.830;2022-12-18T06:36:06;21.10;;;12.25;;
1685;SDS011;840;47.980;7.830;2022-12-18T06:38:42;19.45;;;12.55;;
1685;SDS011;840;47.980;7.830;2022-12-18T06:41:12;18.95;;;12.80;;
1685;SDS011;840;47.980;7.830;2022-12-18T06:43:41;18.63;;;11.15;;
1685;SDS011;840;47.980;7.830;2022-12-18T06:46:08;17.92;;;12.85;;
1685;SDS011;840;47.980;7.830;2022-12-18T06:48:36;26.40;;;14.20;;
1685;SDS011;840;47.980;7.830;2022-12-18T06:51:03;24.55;;;11.93;;
1685;SDS011;840;47.980;7.830;2022-12-18T06:53:31;16.42;;;10.90;;
1685;SDS011;840;47.980;7.830;2022-12-18T06:56:00;17.35;;;11.48;;
1685;SDS011;840;47.980;7.830;2022-12-18T06:58:29;19.80;;;13.10;;
1685;SDS011;840;47.980;7.830;2022-12-18T07:01:01;14.43;;;9.13;;
1685;SDS011;840;47.980;7.830;2022-12-18T07:03:31;19.50;;;13.88;;
1685;SDS011;840;47.980;7.830;2022-12-18T07:05:58;20.80;;;11.93;;
1685;SDS011;840;47.980;7.830;2022-12-18T07:08:26;16.67;;;11.15;;
1685;SDS011;840;47.980;7.830;2022-12-18T07:10:56;16.27;;;9.70;;
1685;SDS011;840;47.980;7.830;2022-12-18T07:13:24;22.88;;;11.32;;
1685;SDS011;840;47.980;7.830;2022-12-18T07:15:54;18.23;;;11.27;;
1685;SDS011;840;47.980;7.830;2022-12-18T07:18:21;17.58;;;11.32;;
1685;SDS011;840;47.980;7.830;2022-12-18T07:20:48;14.32;;;10.23;;
1685;SDS011;840;47.980;7.830;2022-12-18T07:23:15;16.30;;;9.23;;
1685;SDS011;840;47.980;7.830;2022-12-18T07:25:43;14.88;;;9.48;;
1685;SDS011;840;47.980;7.830;2022-12-18T07:28:11;15.27;;;10.63;;
1685;SDS011;840;47.980;7.830;2022-12-18T07:30:41;17.17;;;9.57;;
1685;SDS011;840;47.980;7.830;2022-12-18T07:33:09;15.65;;;10.07;;
1685;SDS011;840;47.980;7.830;2022-12-18T07:35:37;17.50;;;10.18;;
1685;SDS011;840;47.980;7.830;2022-12-18T07:38:07;14.80;;;11.15;;
1685;SDS011;840;47.980;7.830;2022-12-18T07:40:38;15.60;;;10.23;;
1685;SDS011;840;47.980;7.830;2022-12-18T07:43:05;15.23;;;10.45;;
1685;SDS011;840;47.980;7.830;2022-12-18T07:45:33;20.38;;;12.10;;
1685;SDS011;840;47.980;7.830;2022-12-18T07:48:01;35.78;;;15.13;;
1685;SDS011;840;47.980;7.830;2022-12-18T07:50:30;30.35;;;14.43;;
1685;SDS011;840;47.980;7.830;2022-12-18T07:52:57;25.67;;;14.55;;
1685;SDS011;840;47.980;7.830;2022-12-18T07:55:28;31.60;;;14.52;;
1685;SDS011;840;47.980;7.830;2022-12-18T07:57:56;23.50;;;13.40;;
1685;SDS011;840;47.980;7.830;2022-12-18T08:00:26;17.88;;;11.38;;
1685;SDS011;840;47.980;7.830;2022-12-18T08:02:54;22.08;;;12.40;;
1685;SDS011;840;47.980;7.830;2022-12-18T08:05:21;20.83;;;12.07;;
1685;SDS011;840;47.980;7.830;2022-12-18T08:07:49;20.42;;;13.13;;
1685;SDS011;840;47.980;7.830;2022-12-18T08:10:17;18.55;;;14.57;;
1685;SDS011;840;47.980;7.830;2022-12-18T08:12:44;20.98;;;13.52;;
1685;SDS011;840;47.980;7.830;2022-12-18T08:15:11;25.70;;;14.45;;
1685;SDS011;840;47.980;7.830;2022-12-18T08:17:39;20.00;;;13.95;;
1685;SDS011;840;47.980;7.830;2022-12-18T08:20:07;18.13;;;14.20;;
1685;SDS011;840;47.980;7.830;2022-12-18T08:22:35;19.90;;;13.38;;
1685;SDS011;840;47.980;7.830;2022-12-18T08:25:04;17.40;;;13.15;;
1685;SDS011;840;47.980;7.830;2022-12-18T08:27:32;16.92;;;11.45;;
1685;SDS011;840;47.980;7.830;2022-12-18T08:29:59;17.27;;;13.25;;
1685;SDS011;840;47.980;7.830;2022-12-18T08:32:28;19.70;;;13.30;;
1685;SDS011;840;47.980;7.830;2022-12-18T08:34:55;23.30;;;13.88;;
1685;SDS011;840;47.980;7.830;2022-12-18T08:37:23;19.80;;;14.07;;
1685;SDS011;840;47.980;7.830;2022-12-18T08:39:50;18.88;;;13.07;;
1685;SDS011;840;47.980;7.830;2022-12-18T08:42:19;16.40;;;12.05;;
1685;SDS011;840;47.980;7.830;2022-12-18T08:45:04;28.90;;;15.13;;
1685;SDS011;840;47.980;7.830;2022-12-18T08:47:32;20.17;;;14.65;;
1685;SDS011;840;47.980;7.830;2022-12-18T08:50:05;20.10;;;13.75;;
1685;SDS011;840;47.980;7.830;2022-12-18T08:52:33;18.10;;;11.82;;
1685;SDS011;840;47.980;7.830;2022-12-18T08:55:00;15.95;;;12.55;;
1685;SDS011;840;47.980;7.830;2022-12-18T08:57:30;24.88;;;15.32;;
1685;SDS011;840;47.980;7.830;2022-12-18T08:59:57;19.10;;;13.10;;
1685;SDS011;840;47.980;7.830;2022-12-18T09:02:25;19.67;;;13.35;;
1685;SDS011;840;47.980;7.830;2022-12-18T09:04:55;18.52;;;13.10;;
1685;SDS011;840;47.980;7.830;2022-12-18T09:07:23;18.38;;;13.30;;
1685;SDS011;840;47.980;7.830;2022-12-18T09:09:50;20.98;;;14.45;;
1685;SDS011;840;47.980;7.830;2022-12-18T09:12:18;21.20;;;14.15;;
1685;SDS011;840;47.980;7.830;2022-12-18T09:14:46;21.73;;;14.60;;
1685;SDS011;840;47.980;7.830;2022-12-18T09:17:17;19.00;;;13.85;;
1685;SDS011;840;47.980;7.830;2022-12-18T09:19:44;19.05;;;14.32;;
1685;SDS011;840;47.980;7.830;2022-12-18T09:22:11;20.55;;;15.52;;
1685;SDS011;840;47.980;7.830;2022-12-18T09:24:40;22.55;;;14.30;;
1685;SDS011;840;47.980;7.830;2022-12-18T09:27:07;14.45;;;12.20;;
1685;SDS011;840;47.980;7.830;2022-12-18T09:29:34;20.27;;;14.43;;
1685;SDS011;840;47.980;7.830;2022-12-18T09:32:04;23.08;;;14.40;;
1685;SDS011;840;47.980;7.830;2022-12-18T09:34:31;25.75;;;14.65;;
1685;SDS011;840;47.980;7.830;2022-12-18T09:37:00;28.33;;;16.95;;
1685;SDS011;840;47.980;7.830;2022-12-18T09:39:27;22.35;;;15.18;;
1685;SDS011;840;47.980;7.830;2022-12-18T09:41:57;24.80;;;15.88;;
1685;SDS011;840;47.980;7.830;2022-12-18T09:44:25;29.55;;;19.02;;
1685;SDS011;840;47.980;7.830;2022-12-18T09:46:59;27.65;;;17.60;;
1685;SDS011;840;47.980;7.830;2022-12-18T09:49:35;25.92;;;15.23;;
1685;SDS011;840;47.980;7.830;2022-12-18T09:52:08;21.25;;;14.15;;
1685;SDS011;840;47.980;7.830;2022-12-18T09:54:39;25.30;;;14.88;;
1685;SDS011;840;47.980;7.830;2022-12-18T09:57:10;20.63;;;14.15;;
1685;SDS011;840;47.980;7.830;2022-12-18T09:59:39;22.60;;;17.45;;
1685;SDS011;840;47.980;7.830;2022-12-18T10:02:17;23.40;;;15.80;;
1685;SDS011;840;47.980;7.830;2022-12-18T10:04:48;31.85;;;17.48;;
1685;SDS011;840;47.980;7.830;2022-12-18T10:07:33;28.77;;;16.58;;
1685;SDS011;840;47.980;7.830;2022-12-18T10:10:13;24.27;;;14.80;;
1685;SDS011;840;47.980;7.830;2022-12-18T10:13:00;31.33;;;16.73;;
1685;SDS011;840;47.980;7.830;2022-12-18T10:15:35;24.40;;;16.63;;
1685;SDS011;840;47.980;7.830;2022-12-18T10:18:10;25.98;;;16.95;;
1685;SDS011;840;47.980;7.830;2022-12-18T10:20:48;20.58;;;15.73;;
1685;SDS011;840;47.980;7.830;2022-12-18T10:23:19;29.83;;;17.55;;
1685;SDS011;840;47.980;7.830;2022-12-18T10:25:57;19.90;;;15.55;;
1685;SDS011;840;47.980;7.830;2022-12-18T10:28:29;34.58;;;15.63;;
1685;SDS011;840;47.980;7.830;2022-12-18T10:30:57;18.98;;;14.82;;
1685;SDS011;840;47.980;7.830;2022-12-18T10:33:29;20.52;;;16.42;;
1685;SDS011;840;47.980;7.830;2022-12-18T10:35:57;36.75;;;17.05;;
1685;SDS011;840;47.980;7.830;2022-12-18T10:38:25;21.85;;;15.73;;
1685;SDS011;840;47.980;7.830;2022-12-18T10:40:57;24.20;;;15.85;;
1685;SDS011;840;47.980;7.830;2022-12-18T10:43:27;15.70;;;12.68;;
1685;SDS011;840;47.980;7.830;2022-12-18T10:45:59;26.42;;;18.27;;
1685;SDS011;840;47.980;7.830;2022-12-18T10:48:32;24.98;;;15.35;;
1685;SDS011;840;47.980;7.830;2022-12-18T10:51:08;23.90;;;16.15;;
1685;SDS011;840;47.980;7.830;2022-12-18T10:53:36;21.85;;;15.13;;
1685;SDS011;840;47.980;7.830;2022-12-18T10:56:04;27.58;;;15.82;;
1685;SDS011;840;47.980;7.830;2022-12-18T10:58:35;25.25;;;18.85;;
1685;SDS011;840;47.980;7.830;2022-12-18T11:01:05;30.27;;;16.65;;
1685;SDS011;840;47.980;7.830;2022-12-18T11:03:36;24.40;;;18.30;;
1685;SDS011;840;47.980;7.830;2022-12-18T11:06:05;36.63;;;19.85;;
1685;SDS011;840;47.980;7.830;2022-12-18T11:08:34;22.05;;;16.67;;
1685;SDS011;840;47.980;7.830;2022-12-18T11:11:02;26.45;;;18.70;;
1685;SDS011;840;47.980;7.830;2022-12-18T11:13:41;22.73;;;17.17;;
1685;SDS011;840;47.980;7.830;2022-12-18T11:16:17;34.83;;;18.42;;
1685;SDS011;840;47.980;7.830;2022-12-18T11:18:46;31.55;;;19.95;;
1685;SDS011;840;47.980;7.830;2022-12-18T11:21:14;34.45;;;19.55;;
1685;SDS011;840;47.980;7.830;2022-12-18T11:23:44;31.75;;;24.00;;
1685;SDS011;840;47.980;7.830;2022-12-18T11:26:13;36.35;;;22.45;;
1685;SDS011;840;47.980;7.830;2022-12-18T11:28:44;25.25;;;19.27;;
1685;SDS011;840;47.980;7.830;2022-12-18T11:31:19;24.33;;;18.48;;
1685;SDS011;840;47.980;7.830;2022-12-18T11:34:03;27.42;;;20.63;;
1685;SDS011;840;47.980;7.830;2022-12-18T11:36:38;29.38;;;17.92;;
1685;SDS011;840;47.980;7.830;2022-12-18T11:39:10;29.63;;;19.35;;
1685;SDS011;840;47.980;7.830;2022-12-18T11:41:43;27.05;;;18.23;;
1685;SDS011;840;47.980;7.830;2022-12-18T11:44:36;30.25;;;18.02;;
1685;SDS011;840;47.980;7.830;2022-12-18T11:47:13;27.58;;;19.73;;
1685;SDS011;840;47.980;7.830;2022-12-18T11:49:52;21.92;;;18.63;;
1685;SDS011;840;47.980;7.830;2022-12-18T11:52:23;22.67;;;15.18;;
1685;SDS011;840;47.980;7.830;2022-12-18T11:54:54;30.98;;;18.52;;
1685;SDS011;840;47.980;7.830;2022-12-18T11:57:27;29.40;;;19.77;;
1685;SDS011;840;47.980;7.830;2022-12-18T12:00:02;28.50;;;17.48;;
1685;SDS011;840;47.980;7.830;2022-12-18T12:05:41;26.63;;;17.92;;
1685;SDS011;840;47.980;7.830;2022-12-18T12:08:18;25.27;;;16.80;;
1685;SDS011;840;47.980;7.830;2022-12-18T12:10:52;34.25;;;19.40;;
1685;SDS011;840;47.980;7.830;2022-12-18T12:13:29;30.23;;;19.77;;
1685;SDS011;840;47.980;7.830;2022-12-18T12:16:08;28.02;;;18.67;;
1685;SDS011;840;47.980;7.830;2022-12-18T12:18:45;24.08;;;18.45;;
1685;SDS011;840;47.980;7.830;2022-12-18T12:21:25;36.45;;;19.85;;
1685;SDS011;840;47.980;7.830;2022-12-18T12:24:02;29.70;;;21.30;;
1685;SDS011;840;47.980;7.830;2022-12-18T12:26:38;30.27;;;19.60;;
1685;SDS011;840;47.980;7.830;2022-12-18T12:29:17;26.25;;;18.77;;
1685;SDS011;840;47.980;7.830;2022-12-18T12:32:00;29.58;;;20.15;;
1685;SDS011;840;47.980;7.830;2022-12-18T12:34:39;34.58;;;21.95;;
1685;SDS011;840;47.980;7.830;2022-12-18T12:37:19;34.60;;;19.73;;
1685;SDS011;840;47.980;7.830;2022-12-18T12:39:57;29.98;;;19.23;;
1685;SDS011;840;47.980;7.830;2022-12-18T12:42:29;34.92;;;19.23;;
1685;SDS011;840;47.980;7.830;2022-12-18T12:45:21;30.25;;;20.60;;
1685;SDS011;840;47.980;7.830;2022-12-18T12:47:58;27.40;;;19.55;;
1685;SDS011;840;47.980;7.830;2022-12-18T12:50:42;25.08;;;19.05;;
1685;SDS011;840;47.980;7.830;2022-12-18T12:53:16;24.73;;;17.83;;
1685;SDS011;840;47.980;7.830;2022-12-18T12:55:49;31.40;;;18.98;;
1685;SDS011;840;47.980;7.830;2022-12-18T12:58:19;27.25;;;18.00;;
1685;SDS011;840;47.980;7.830;2022-12-18T13:01:01;27.95;;;18.40;;
1685;SDS011;840;47.980;7.830;2022-12-18T13:03:41;27.23;;;17.90;;
1685;SDS011;840;47.980;7.830;2022-12-18T13:06:19;31.10;;;18.95;;
1685;SDS011;840;47.980;7.830;2022-12-18T13:08:59;28.73;;;21.65;;
1685;SDS011;840;47.980;7.830;2022-12-18T13:11:30;24.10;;;17.17;;
1685;SDS011;840;47.980;7.830;2022-12-18T13:14:22;29.73;;;19.00;;
1685;SDS011;840;47.980;7.830;2022-12-18T13:20:02;28.08;;;18.13;;
1685;SDS011;840;47.980;7.830;2022-12-18T13:22:34;27.25;;;17.80;;
1685;SDS011;840;47.980;7.830;2022-12-18T13:25:04;31.02;;;21.30;;
1685;SDS011;840;47.980;7.830;2022-12-18T13:28:03;26.17;;;17.42;;
1685;SDS011;840;47.980;7.830;2022-12-18T13:36:23;25.02;;;18.70;;
1685;SDS011;840;47.980;7.830;2022-12-18T13:39:10;27.35;;;16.45;;
1685;SDS011;840;47.980;7.830;2022-12-18T13:41:51;30.17;;;19.08;;
1685;SDS011;840;47.980;7.830;2022-12-18T13:47:02;25.90;;;18.10;;
1685;SDS011;840;47.980;7.830;2022-12-18T13:49:33;23.33;;;17.80;;
1685;SDS011;840;47.980;7.830;2022-12-18T13:52:14;23.07;;;17.27;;
1685;SDS011;840;47.980;7.830;2022-12-18T13:54:45;24.20;;;16.55;;
1685;SDS011;840;47.980;7.830;2022-12-18T14:00:23;27.55;;;14.88;;
1685;SDS011;840;47.980;7.830;2022-12-18T14:02:52;23.70;;;16.20;;
1685;SDS011;840;47.980;7.830;2022-12-18T14:05:23;22.10;;;16.70;;
1685;SDS011;840;47.980;7.830;2022-12-18T14:07:51;25.30;;;18.13;;
1685;SDS011;840;47.980;7.830;2022-12-18T14:10:19;28.93;;;19.20;;
1685;SDS011;840;47.980;7.830;2022-12-18T14:12:57;23.00;;;16.67;;
1685;SDS011;840;47.980;7.830;2022-12-18T14:15:31;35.90;;;19.20;;
1685;SDS011;840;47.980;7.830;2022-12-18T14:18:03;24.90;;;17.48;;
1685;SDS011;840;47.980;7.830;2022-12-18T14:20:51;23.25;;;15.68;;
1685;SDS011;840;47.980;7.830;2022-12-18T14:23:27;23.13;;;16.10;;
1685;SDS011;840;47.980;7.830;2022-12-18T14:26:02;21.30;;;14.90;;
1685;SDS011;840;47.980;7.830;2022-12-18T14:28:46;21.67;;;16.37;;
1685;SDS011;840;47.980;7.830;2022-12-18T14:31:16;26.30;;;18.73;;
1685;SDS011;840;47.980;7.830;2022-12-18T14:33:45;23.60;;;15.97;;
1685;SDS011;840;47.980;7.830;2022-12-18T14:36:14;25.07;;;16.73;;
1685;SDS011;840;47.980;7.830;2022-12-18T14:38:43;22.67;;;15.97;;
1685;SDS011;840;47.980;7.830;2022-12-18T14:41:14;21.17;;;13.93;;
1685;SDS011;840;47.980;7.830;2022-12-18T14:43:43;23.57;;;16.97;;
1685;SDS011;840;47.980;7.830;2022-12-18T14:49:01;24.53;;;17.00;;
1685;SDS011;840;47.980;7.830;2022-12-18T14:51:31;21.13;;;15.73;;
1685;SDS011;840;47.980;7.830;2022-12-18T14:54:00;21.40;;;14.77;;
1685;SDS011;840;47.980;7.830;2022-12-18T14:56:29;22.00;;;16.90;;
1685;SDS011;840;47.980;7.830;2022-12-18T14:58:58;25.57;;;17.80;;
1685;SDS011;840;47.980;7.830;2022-12-18T15:01:28;26.90;;;18.90;;
1685;SDS011;840;47.980;7.830;2022-12-18T15:04:00;28.60;;;21.05;;
1685;SDS011;840;47.980;7.830;2022-12-18T15:06:29;25.20;;;17.92;;
1685;SDS011;840;47.980;7.830;2022-12-18T15:09:00;23.40;;;18.37;;
1685;SDS011;840;47.980;7.830;2022-12-18T15:11:34;23.85;;;17.75;;
1685;SDS011;840;47.980;7.830;2022-12-18T15:14:22;25.93;;;16.80;;
1685;SDS011;840;47.980;7.830;2022-12-18T15:17:17;31.00;;;17.17;;
1685;SDS011;840;47.980;7.830;2022-12-18T15:19:48;23.87;;;16.27;;
1685;SDS011;840;47.980;7.830;2022-12-18T15:22:19;23.93;;;18.57;;
1685;SDS011;840;47.980;7.830;2022-12-18T15:24:49;25.73;;;17.53;;
1685;SDS011;840;47.980;7.830;2022-12-18T15:27:24;25.35;;;19.15;;
1685;SDS011;840;47.980;7.830;2022-12-18T15:30:11;25.87;;;17.77;;
1685;SDS011;840;47.980;7.830;2022-12-18T15:32:46;27.20;;;20.23;;
1685;SDS011;840;47.980;7.830;2022-12-18T15:35:16;25.02;;;18.95;;
1685;SDS011;840;47.980;7.830;2022-12-18T15:37:48;25.15;;;20.23;;
1685;SDS011;840;47.980;7.830;2022-12-18T15:40:21;26.10;;;19.20;;
1685;SDS011;840;47.980;7.830;2022-12-18T15:42:53;29.85;;;19.10;;
1685;SDS011;840;47.980;7.830;2022-12-18T15:45:39;28.35;;;19.58;;
1685;SDS011;840;47.980;7.830;2022-12-18T15:48:14;30.48;;;21.17;;
1685;SDS011;840;47.980;7.830;2022-12-18T15:50:49;26.77;;;18.75;;
1685;SDS011;840;47.980;7.830;2022-12-18T15:53:18;25.42;;;20.42;;
1685;SDS011;840;47.980;7.830;2022-12-18T15:55:46;29.92;;;19.42;;
1685;SDS011;840;47.980;7.830;2022-12-18T15:58:31;26.92;;;20.25;;